Time;durP1;ratioP1;P1;durP2;ratioP2;P2;SDS_P1;SDS_P2;PMS_P1;PMS_P2;Temp;Humidity;BMP_temperature;BMP_pressure;BME280_temperature;BME280_humidity;BME280_pressure;Samples;Min_cycle;Max_cycle;Signal;HPM_P1;HPM_P2
2023/05/14 00:00:15;;;;;;;3.83;2.23;;;;;;;13.58;49.67;93861.31;525365;28;1169;-58
2023/05/14 00:00:30;;;;;;;3.95;2.10;;;;;;;13.58;49.99;93852.97;523944;28;1252;-58
2023/05/14 00:00:46;;;;;;;4.27;2.13;;;;;;;13.61;50.08;93857.44;523910;28;1565;-58
2023/05/14 00:01:02;;;;;;;5.20;2.35;;;;;;;13.61;49.69;93860.19;522772;28;986;-58
2023/05/14 00:01:17;;;;;;;4.63;2.33;;;;;;;13.64;49.93;93858.34;521972;28;1098;-58
2023/05/14 00:01:33;;;;;;;2.67;2.10;;;;;;;13.46;50.50;93837.28;522696;28;748;-59
2023/05/14 00:01:50;;;;;;;4.47;2.03;;;;;;;13.56;49.71;93861.13;523861;28;1070;-59
2023/05/14 00:02:08;;;;;;;4.75;2.00;;;;;;;13.60;49.41;93860.75;523985;28;899;-59
2023/05/14 00:02:24;;;;;;;3.42;2.10;;;;;;;13.59;49.21;93854.47;522719;28;1684;-59
2023/05/14 00:02:39;;;;;;;4.30;2.20;;;;;;;13.61;49.26;93856.69;523593;28;764;-59
2023/05/14 00:02:55;;;;;;;4.22;2.20;;;;;;;13.61;49.06;93867.78;523876;28;966;-59
2023/05/14 00:03:10;;;;;;;3.23;1.90;;;;;;;13.62;49.19;93866.50;524107;28;840;-60
2023/05/14 00:03:26;;;;;;;3.80;2.08;;;;;;;13.62;49.18;93867.22;523983;28;1098;-59
2023/05/14 00:03:41;;;;;;;3.83;2.30;;;;;;;13.58;49.05;93866.09;524255;28;848;-57
2023/05/14 00:03:56;;;;;;;2.35;2.08;;;;;;;13.49;49.09;93870.19;524019;28;855;-59
2023/05/14 00:04:13;;;;;;;2.87;2.00;;;;;;;13.41;49.33;93858.38;523960;28;1068;-59
2023/05/14 00:04:28;;;;;;;2.80;1.83;;;;;;;13.41;49.34;93866.72;522715;28;1703;-59
2023/05/14 00:04:44;;;;;;;1.95;1.75;;;;;;;13.43;49.34;93861.34;524124;28;979;-58
2023/05/14 00:04:59;;;;;;;3.40;1.90;;;;;;;13.47;49.28;93864.47;522824;28;1656;-59
2023/05/14 00:05:14;;;;;;;5.27;2.20;;;;;;;13.52;49.15;93871.88;521947;28;946;-59
2023/05/14 00:05:30;;;;;;;4.85;2.30;;;;;;;13.55;49.14;93856.88;521954;28;789;-59
2023/05/14 00:05:45;;;;;;;2.87;2.20;;;;;;;13.57;49.21;93862.63;524246;28;1626;-59
2023/05/14 00:06:00;;;;;;;2.37;2.17;;;;;;;13.60;49.15;93869.81;523903;28;796;-59
2023/05/14 00:06:16;;;;;;;2.65;2.15;;;;;;;13.63;49.04;93865.94;523939;28;1070;-58
2023/05/14 00:06:31;;;;;;;2.60;2.13;;;;;;;13.64;49.00;93869.44;524091;28;931;-58
2023/05/14 00:06:47;;;;;;;2.95;2.05;;;;;;;13.67;48.86;93871.09;523836;28;883;-59
2023/05/14 00:07:02;;;;;;;3.07;2.17;;;;;;;13.64;48.95;93866.66;523779;28;777;-58
2023/05/14 00:07:18;;;;;;;3.30;2.15;;;;;;;13.56;49.24;93866.66;523909;28;864;-58
2023/05/14 00:07:33;;;;;;;3.90;2.10;;;;;;;13.46;49.82;93865.78;523574;28;1695;-58
2023/05/14 00:07:49;;;;;;;4.00;2.17;;;;;;;13.45;50.19;93867.06;523600;28;1066;-58
2023/05/14 00:08:05;;;;;;;4.40;2.20;;;;;;;13.47;50.33;93867.25;521644;28;757;-58
2023/05/14 00:08:20;;;;;;;4.00;2.13;;;;;;;13.49;50.40;93869.47;521753;28;947;-58
2023/05/14 00:08:35;;;;;;;2.47;1.90;;;;;;;13.54;49.88;93868.53;523377;28;2263;-58
2023/05/14 00:08:51;;;;;;;2.25;1.92;;;;;;;13.54;49.63;93869.28;524060;28;793;-58
2023/05/14 00:09:06;;;;;;;3.23;2.03;;;;;;;13.53;49.74;93873.34;523978;28;808;-59
2023/05/14 00:09:21;;;;;;;4.10;2.03;;;;;;;13.52;49.58;93868.34;523924;28;1156;-58
2023/05/14 00:09:37;;;;;;;3.78;2.00;;;;;;;13.53;49.41;93870.59;524031;28;1039;-58
2023/05/14 00:09:54;;;;;;;4.53;1.93;;;;;;;13.56;49.49;93871.47;523956;28;1239;-58
2023/05/14 00:10:10;;;;;;;4.40;2.00;;;;;;;13.55;49.31;93873.53;523949;28;875;-58
2023/05/14 00:10:26;;;;;;;3.05;2.20;;;;;;;13.42;49.62;93861.91;523960;28;785;-59
2023/05/14 00:10:41;;;;;;;3.53;2.38;;;;;;;13.47;49.27;93875.56;524023;28;820;-59
2023/05/14 00:10:57;;;;;;;3.43;2.40;;;;;;;13.49;49.44;93872.25;521620;28;1177;-58
2023/05/14 00:11:12;;;;;;;3.10;2.15;;;;;;;13.51;48.94;93870.38;521817;28;1158;-58
2023/05/14 00:11:27;;;;;;;3.83;2.10;;;;;;;13.50;49.44;93877.22;521750;28;859;-59
2023/05/14 00:11:43;;;;;;;3.60;2.00;;;;;;;13.52;49.48;93882.97;523809;28;856;-59
2023/05/14 00:11:58;;;;;;;2.67;1.88;;;;;;;13.53;49.42;93880.94;523842;28;789;-59
2023/05/14 00:12:13;;;;;;;2.27;1.87;;;;;;;13.40;49.78;93858.94;523703;28;1094;-57
2023/05/14 00:12:29;;;;;;;4.70;2.13;;;;;;;13.53;49.93;93875.38;522531;28;880;-58
2023/05/14 00:12:44;;;;;;;4.75;2.30;;;;;;;13.44;49.31;93876.69;524143;28;876;-58
2023/05/14 00:13:00;;;;;;;2.90;2.27;;;;;;;13.38;49.73;93873.34;523472;28;949;-58
2023/05/14 00:13:15;;;;;;;4.25;2.28;;;;;;;13.39;49.68;93876.88;524015;28;1517;-57
2023/05/14 00:13:31;;;;;;;3.53;2.10;;;;;;;13.37;49.85;93876.69;524023;28;1544;-57
2023/05/14 00:13:46;;;;;;;3.95;1.95;;;;;;;13.40;49.73;93884.66;523735;28;1522;-58
2023/05/14 00:14:01;;;;;;;4.27;2.00;;;;;;;13.45;49.60;93871.88;523816;28;1137;-57
2023/05/14 00:14:17;;;;;;;3.77;2.03;;;;;;;13.42;49.35;93867.44;523918;28;840;-58
2023/05/14 00:14:32;;;;;;;5.32;2.05;;;;;;;13.40;49.39;93872.81;522605;28;832;-59
2023/05/14 00:14:48;;;;;;;4.30;2.07;;;;;;;13.20;49.35;93852.31;526153;28;840;-58
2023/05/14 00:15:03;;;;;;;4.03;2.00;;;;;;;13.31;49.55;93878.94;525746;28;1355;-58
2023/05/14 00:15:19;;;;;;;3.50;2.00;;;;;;;13.33;49.59;93877.06;522942;27;1289;-59
2023/05/14 00:15:34;;;;;;;2.10;1.90;;;;;;;13.36;49.53;93878.00;524623;28;809;-59
2023/05/14 00:15:50;;;;;;;2.87;1.80;;;;;;;13.32;49.49;93864.50;526065;28;761;-58
2023/05/14 00:16:05;;;;;;;3.72;1.85;;;;;;;13.39;49.38;93869.28;526016;28;1242;-58
2023/05/14 00:16:21;;;;;;;2.67;1.93;;;;;;;13.21;49.47;93856.56;526050;28;844;-59
2023/05/14 00:16:36;;;;;;;2.20;1.90;;;;;;;13.37;49.46;93868.38;525080;28;986;-59
2023/05/14 00:16:51;;;;;;;2.88;2.10;;;;;;;13.40;49.55;93873.56;523998;28;1062;-59
2023/05/14 00:17:07;;;;;;;3.00;2.10;;;;;;;13.44;49.79;93867.63;523907;28;821;-60
2023/05/14 00:17:22;;;;;;;2.20;1.90;;;;;;;13.45;49.73;93864.28;524042;28;852;-58
2023/05/14 00:17:38;;;;;;;2.37;1.97;;;;;;;13.29;49.52;93848.97;524134;28;980;-59
2023/05/14 00:17:56;;;;;;;3.93;2.17;;;;;;;13.47;49.45;93869.31;521932;28;820;-59
2023/05/14 00:18:11;;;;;;;6.15;2.38;;;;;;;13.42;49.27;93865.41;521829;28;952;-58
2023/05/14 00:18:26;;;;;;;5.30;2.22;;;;;;;13.28;49.36;93857.84;524015;28;1006;-58
2023/05/14 00:18:42;;;;;;;3.60;2.10;;;;;;;13.34;49.59;93866.72;525588;28;848;-59
2023/05/14 00:18:57;;;;;;;4.30;2.27;;;;;;;13.34;49.63;93867.44;526004;28;808;-58
2023/05/14 00:19:13;;;;;;;4.15;2.28;;;;;;;13.33;49.63;93859.69;525230;28;1257;-58
2023/05/14 00:19:28;;;;;;;2.67;2.17;;;;;;;13.33;49.58;93862.47;524063;28;939;-60
2023/05/14 00:19:43;;;;;;;2.67;2.00;;;;;;;13.32;49.46;93861.00;523979;28;1003;-59
2023/05/14 00:19:59;;;;;;;3.53;2.03;;;;;;;13.34;49.56;93869.50;524019;28;776;-59
2023/05/14 00:20:14;;;;;;;3.53;2.03;;;;;;;13.35;49.52;93857.09;523548;28;1704;-59
2023/05/14 00:20:30;;;;;;;2.22;1.90;;;;;;;13.36;49.87;93853.75;523181;28;920;-59
2023/05/14 00:20:48;;;;;;;2.10;1.90;;;;;;;13.30;49.38;93864.31;526029;28;864;-60
2023/05/14 00:21:03;;;;;;;2.30;1.85;;;;;;;13.31;49.63;93863.03;525973;28;950;-58
2023/05/14 00:21:19;;;;;;;3.13;1.98;;;;;;;13.33;49.52;93857.66;524638;28;1097;-58
2023/05/14 00:21:34;;;;;;;2.80;2.03;;;;;;;13.29;49.61;93857.31;522815;28;773;-59
2023/05/14 00:21:49;;;;;;;2.57;1.90;;;;;;;13.37;49.64;93865.59;523987;28;947;-59
2023/05/14 00:22:05;;;;;;;3.25;1.98;;;;;;;13.36;49.19;93859.31;523772;28;1531;-59
2023/05/14 00:22:20;;;;;;;2.87;2.03;;;;;;;13.35;49.24;93854.31;524074;28;804;-60
2023/05/14 00:22:36;;;;;;;3.33;1.97;;;;;;;13.35;49.43;93863.38;523573;28;790;-59
2023/05/14 00:22:51;;;;;;;3.60;2.13;;;;;;;13.35;49.48;93862.66;524589;28;1338;-60
2023/05/14 00:23:06;;;;;;;2.87;2.57;;;;;;;13.33;49.57;93860.44;523940;28;836;-60
2023/05/14 00:23:22;;;;;;;2.85;2.50;;;;;;;13.18;49.76;93837.53;523985;28;1169;-59
2023/05/14 00:23:39;;;;;;;3.30;2.17;;;;;;;13.24;49.55;93843.63;523761;28;997;-58
2023/05/14 00:23:54;;;;;;;3.17;2.15;;;;;;;13.33;49.52;93862.47;524039;28;967;-58
2023/05/14 00:24:09;;;;;;;4.40;2.00;;;;;;;13.35;49.41;93857.84;523962;28;804;-60
2023/05/14 00:24:25;;;;;;;5.47;2.05;;;;;;;13.34;49.47;93856.34;524063;28;815;-59
2023/05/14 00:24:40;;;;;;;4.20;2.43;;;;;;;13.34;49.52;93864.66;524152;28;1109;-59
2023/05/14 00:24:55;;;;;;;3.90;2.40;;;;;;;13.31;49.50;93862.28;522420;28;1080;-60
2023/05/14 00:25:11;;;;;;;2.90;2.08;;;;;;;13.26;49.60;93854.88;521868;28;1209;-60
2023/05/14 00:25:26;;;;;;;2.73;2.00;;;;;;;13.28;49.63;93863.38;521980;28;817;-60
2023/05/14 00:25:42;;;;;;;3.40;1.90;;;;;;;13.29;49.61;93865.63;523868;28;839;-60
2023/05/14 00:25:57;;;;;;;3.53;2.00;;;;;;;13.27;49.50;93853.59;522506;28;1002;-59
2023/05/14 00:26:13;;;;;;;3.67;2.00;;;;;;;13.29;49.65;93854.53;521828;28;808;-60
2023/05/14 00:26:28;;;;;;;3.67;2.00;;;;;;;13.18;49.70;93843.81;522003;28;829;-60
2023/05/14 00:26:43;;;;;;;2.63;1.90;;;;;;;13.28;49.78;93857.84;523981;28;1110;-59
2023/05/14 00:26:59;;;;;;;2.20;2.00;;;;;;;13.24;49.63;93858.22;523951;28;844;-59
2023/05/14 00:27:14;;;;;;;2.20;2.00;;;;;;;13.20;49.73;93852.31;523965;28;765;-58
2023/05/14 00:27:29;;;;;;;2.20;1.73;;;;;;;13.25;49.79;93858.97;523961;28;1595;-59
2023/05/14 00:27:45;;;;;;;2.33;1.87;;;;;;;13.25;49.69;93864.50;524233;28;947;-59
2023/05/14 00:28:00;;;;;;;2.40;2.00;;;;;;;13.14;50.11;93846.22;523867;28;1217;-61
2023/05/14 00:28:16;;;;;;;3.27;1.93;;;;;;;13.23;49.78;93856.00;522909;28;978;-59
2023/05/14 00:28:31;;;;;;;2.88;1.95;;;;;;;13.19;50.05;93848.06;522238;28;879;-57
2023/05/14 00:28:46;;;;;;;2.10;1.90;;;;;;;13.15;50.15;93852.50;523951;28;1989;-59
2023/05/14 00:29:05;;;;;;;2.40;1.70;;;;;;;12.95;49.95;93826.41;523957;28;883;-60
2023/05/14 00:29:20;;;;;;;3.17;1.90;;;;;;;13.13;49.85;93852.31;521845;28;1007;-61
2023/05/14 00:29:35;;;;;;;2.73;2.00;;;;;;;13.08;49.99;93845.66;522976;28;1554;-60
2023/05/14 00:29:51;;;;;;;1.90;1.73;;;;;;;13.01;50.11;93851.94;523670;28;1297;-60
2023/05/14 00:30:07;;;;;;;2.10;1.83;;;;;;;13.01;50.24;93856.75;523732;28;789;-60
2023/05/14 00:30:22;;;;;;;2.20;2.00;;;;;;;13.02;50.27;93842.31;523728;28;868;-60
2023/05/14 00:30:38;;;;;;;2.42;2.00;;;;;;;13.05;50.27;93851.59;524030;28;832;-59
2023/05/14 00:30:55;;;;;;;2.58;1.92;;;;;;;13.06;50.69;93853.06;523108;28;1617;-59
2023/05/14 00:31:11;;;;;;;2.63;1.88;;;;;;;12.94;50.52;93830.50;523567;28;948;-60
2023/05/14 00:31:26;;;;;;;4.60;2.10;;;;;;;13.08;50.09;93851.19;523821;28;875;-60
2023/05/14 00:31:41;;;;;;;5.80;2.23;;;;;;;13.10;50.00;93856.22;524143;28;773;-60
2023/05/14 00:31:57;;;;;;;3.53;1.93;;;;;;;13.12;50.13;93846.06;525157;28;1205;-60
2023/05/14 00:32:12;;;;;;;3.38;1.90;;;;;;;13.10;50.16;93845.88;525902;28;831;-60
2023/05/14 00:32:28;;;;;;;3.87;2.00;;;;;;;13.12;50.91;93851.59;525842;28;1194;-59
2023/05/14 00:32:43;;;;;;;4.20;1.90;;;;;;;13.08;50.90;93858.81;524438;28;1180;-59
2023/05/14 00:32:58;;;;;;;3.47;2.00;;;;;;;13.08;50.80;93853.97;523716;28;847;-59
2023/05/14 00:33:14;;;;;;;2.57;2.00;;;;;;;13.04;50.37;93856.34;523769;28;903;-60
2023/05/14 00:33:29;;;;;;;2.60;1.80;;;;;;;13.04;50.15;93856.34;523847;28;784;-60
2023/05/14 00:33:45;;;;;;;2.38;2.03;;;;;;;13.06;50.36;93853.06;524520;28;1647;-60
2023/05/14 00:34:01;;;;;;;5.30;2.30;;;;;;;13.02;50.11;93841.56;525500;28;1097;-60
2023/05/14 00:34:16;;;;;;;5.67;1.90;;;;;;;13.09;50.30;93849.94;524903;28;1283;-59
2023/05/14 00:34:31;;;;;;;3.30;1.80;;;;;;;13.09;50.14;93844.38;525581;28;887;-58
2023/05/14 00:34:47;;;;;;;2.60;1.70;;;;;;;12.94;50.62;93849.91;523334;28;1617;-59
2023/05/14 00:35:03;;;;;;;2.30;1.70;;;;;;;12.84;50.76;93838.63;523462;28;832;-60
2023/05/14 00:35:20;;;;;;;2.63;2.10;;;;;;;12.95;50.56;93849.34;522094;28;804;-60
2023/05/14 00:35:35;;;;;;;3.80;2.20;;;;;;;13.00;50.54;93850.44;523308;28;1113;-59
2023/05/14 00:35:51;;;;;;;2.92;2.08;;;;;;;13.03;50.46;93854.91;521875;28;859;-60
2023/05/14 00:36:06;;;;;;;2.90;2.10;;;;;;;12.96;50.46;93830.69;521852;28;925;-60
2023/05/14 00:36:22;;;;;;;3.80;2.20;;;;;;;13.08;50.46;93839.41;524073;28;1201;-60
2023/05/14 00:36:37;;;;;;;3.40;2.20;;;;;;;13.09;50.41;93849.94;524824;28;922;-60
2023/05/14 00:36:53;;;;;;;2.42;2.03;;;;;;;12.91;50.55;93828.81;523602;28;1071;-61
2023/05/14 00:37:08;;;;;;;2.10;1.90;;;;;;;13.08;50.75;93853.25;523134;28;1126;-61
2023/05/14 00:37:23;;;;;;;2.20;1.90;;;;;;;13.07;50.45;93846.22;524274;28;801;-61
2023/05/14 00:37:39;;;;;;;2.92;1.80;;;;;;;13.03;50.00;93848.59;524896;28;1181;-62
2023/05/14 00:37:54;;;;;;;4.53;2.00;;;;;;;12.83;49.97;93831.63;526305;28;781;-61
2023/05/14 00:38:15;;;;;;;4.22;1.95;;;;;;;12.94;50.39;93852.69;524574;28;1659;-61
2023/05/14 00:38:31;;;;;;;2.83;1.92;;;;;;;12.95;50.50;93854.13;524116;28;891;-61
2023/05/14 00:38:46;;;;;;;2.17;1.80;;;;;;;12.96;50.37;93855.63;522392;28;785;-62
2023/05/14 00:39:02;;;;;;;2.17;1.80;;;;;;;12.96;50.55;93861.16;522180;28;856;-61
2023/05/14 00:39:17;;;;;;;2.70;1.88;;;;;;;12.94;50.87;93852.69;522422;28;873;-62
2023/05/14 00:39:33;;;;;;;2.67;1.98;;;;;;;12.97;50.86;93851.56;523132;28;836;-61
2023/05/14 00:39:48;;;;;;;2.67;2.00;;;;;;;12.91;50.78;93845.47;524393;28;816;-62
2023/05/14 00:40:05;;;;;;;2.90;1.77;;;;;;;13.02;50.57;93853.41;524258;28;1531;-61
2023/05/14 00:40:25;;;;;;;3.23;1.83;;;;;;;12.99;50.25;93853.78;522895;28;2084;-61
2023/05/14 00:40:44;;;;;;;2.88;1.98;;;;;;;13.02;50.20;93853.41;523944;28;970;-61
2023/05/14 00:40:59;;;;;;;2.95;1.80;;;;;;;12.99;50.35;93846.22;524123;28;849;-62
2023/05/14 00:41:15;;;;;;;3.43;1.83;;;;;;;13.03;50.56;93852.13;524368;28;789;-61
2023/05/14 00:41:30;;;;;;;2.88;1.80;;;;;;;12.95;50.69;93840.28;524318;28;1120;-61
2023/05/14 00:41:45;;;;;;;1.90;1.80;;;;;;;12.99;50.44;93846.22;522488;28;938;-61
2023/05/14 00:42:01;;;;;;;3.40;2.13;;;;;;;12.96;50.59;93844.53;522282;28;931;-61
2023/05/14 00:42:16;;;;;;;3.85;2.30;;;;;;;12.95;50.70;93848.59;522355;28;796;-61
2023/05/14 00:42:31;;;;;;;3.40;1.90;;;;;;;12.91;50.65;93848.22;522881;28;1085;-61
2023/05/14 00:42:47;;;;;;;3.20;1.80;;;;;;;12.88;50.58;93855.63;524403;28;784;-62
2023/05/14 00:43:02;;;;;;;3.55;2.15;;;;;;;12.68;50.58;93825.31;522872;28;1119;-61
2023/05/14 00:43:18;;;;;;;4.37;2.30;;;;;;;12.90;50.77;93850.28;524363;28;1027;-61
2023/05/14 00:43:34;;;;;;;3.60;2.10;;;;;;;12.67;50.97;93812.75;524720;28;828;-60
2023/05/14 00:43:49;;;;;;;2.97;1.88;;;;;;;12.90;51.17;93852.31;524352;28;875;-61
2023/05/14 00:44:05;;;;;;;3.40;2.07;;;;;;;12.91;50.90;93845.47;524331;28;821;-61
2023/05/14 00:44:20;;;;;;;3.33;2.08;;;;;;;12.92;50.81;93844.19;524436;28;840;-60
2023/05/14 00:44:35;;;;;;;2.53;2.07;;;;;;;12.95;50.70;93845.81;523840;28;954;-61
2023/05/14 00:44:52;;;;;;;2.80;2.10;;;;;;;12.86;50.71;93830.50;522341;28;1685;-61
2023/05/14 00:45:07;;;;;;;2.47;1.90;;;;;;;12.97;50.68;93843.25;522304;28;880;-61
2023/05/14 00:45:23;;;;;;;2.88;1.83;;;;;;;12.89;50.63;93836.97;522308;28;974;-61
2023/05/14 00:45:38;;;;;;;3.38;2.22;;;;;;;12.94;50.76;93836.03;522619;28;1125;-61
2023/05/14 00:45:54;;;;;;;2.87;2.33;;;;;;;13.02;50.96;93845.09;523604;28;1513;-61
2023/05/14 00:46:11;;;;;;;2.60;2.22;;;;;;;13.01;50.74;93845.66;521977;28;1236;-61
2023/05/14 00:46:26;;;;;;;3.50;2.25;;;;;;;13.01;50.70;93848.41;521975;28;2133;-61
2023/05/14 00:46:42;;;;;;;4.10;2.27;;;;;;;13.00;50.66;93844.91;521851;28;1460;-62
2023/05/14 00:46:58;;;;;;;2.95;2.17;;;;;;;13.00;50.48;93844.91;522083;28;904;-62
2023/05/14 00:47:13;;;;;;;2.20;2.00;;;;;;;12.91;50.59;93831.59;522089;28;1232;-61
2023/05/14 00:47:29;;;;;;;2.20;1.97;;;;;;;12.99;50.61;93843.44;522162;28;856;-60
2023/05/14 00:47:44;;;;;;;3.20;2.00;;;;;;;12.98;50.86;93846.75;522622;28;975;-61
2023/05/14 00:48:00;;;;;;;3.67;2.03;;;;;;;12.77;51.20;93817.22;524122;28;884;-61
2023/05/14 00:48:16;;;;;;;4.50;2.15;;;;;;;12.99;51.15;93837.16;521710;28;1700;-60
2023/05/14 00:48:31;;;;;;;3.83;2.20;;;;;;;12.99;51.17;93837.16;520231;28;1578;-62
2023/05/14 00:48:46;;;;;;;1.95;1.80;;;;;;;12.92;50.99;93835.88;519921;28;1997;-61
2023/05/14 00:49:02;;;;;;;1.90;1.63;;;;;;;12.88;51.03;93841.78;520021;28;876;-61
2023/05/14 00:49:17;;;;;;;2.33;1.90;;;;;;;12.90;51.11;93836.44;522192;28;876;-62
2023/05/14 00:49:33;;;;;;;2.75;2.05;;;;;;;12.92;51.04;93835.88;522101;28;1030;-61
2023/05/14 00:49:48;;;;;;;2.97;2.10;;;;;;;12.85;51.15;93817.94;520050;28;1022;-61
2023/05/14 00:50:04;;;;;;;2.88;1.80;;;;;;;12.96;51.09;93836.22;520304;28;1032;-62
2023/05/14 00:50:20;;;;;;;3.13;1.83;;;;;;;12.96;51.23;93836.22;520924;28;1157;-61
2023/05/14 00:50:35;;;;;;;3.83;2.07;;;;;;;12.97;51.19;93842.50;519056;28;1172;-62
2023/05/14 00:50:51;;;;;;;4.95;1.88;;;;;;;12.87;51.29;93831.22;519986;28;1229;-62
2023/05/14 00:51:07;;;;;;;3.70;1.80;;;;;;;12.86;51.32;93840.84;520406;28;862;-61
2023/05/14 00:51:22;;;;;;;2.27;1.90;;;;;;;12.89;51.39;93828.66;522011;28;845;-61
2023/05/14 00:51:40;;;;;;;2.53;1.80;;;;;;;12.94;51.24;93830.50;518178;28;841;-61
2023/05/14 00:51:57;;;;;;;2.63;1.90;;;;;;;12.97;51.31;93831.44;516626;28;846;-61
2023/05/14 00:52:13;;;;;;;5.50;2.35;;;;;;;12.98;51.32;93824.56;517848;28;1645;-61
2023/05/14 00:52:29;;;;;;;6.23;2.43;;;;;;;12.97;51.63;93832.16;516957;28;794;-61
2023/05/14 00:52:44;;;;;;;2.80;2.00;;;;;;;12.94;51.51;93824.97;516780;28;1360;-61
2023/05/14 00:52:59;;;;;;;1.90;1.77;;;;;;;12.87;51.90;93836.78;516032;28;1451;-61
2023/05/14 00:53:15;;;;;;;2.50;2.10;;;;;;;12.83;51.93;93826.06;516681;28;1194;-61
2023/05/14 00:53:31;;;;;;;2.75;2.38;;;;;;;12.84;51.93;93833.06;518041;28;1028;-60
2023/05/14 00:53:46;;;;;;;2.60;1.97;;;;;;;12.82;51.94;93830.13;519026;28;823;-61
2023/05/14 00:54:02;;;;;;;2.45;1.63;;;;;;;12.79;52.09;93831.25;517993;28;857;-61
2023/05/14 00:54:18;;;;;;;2.00;1.80;;;;;;;12.82;52.05;93834.94;518440;28;808;-59
2023/05/14 00:54:34;;;;;;;2.30;2.10;;;;;;;12.84;52.32;93829.59;520326;28;881;-60
2023/05/14 00:54:49;;;;;;;2.75;2.20;;;;;;;12.84;52.34;93832.38;517965;28;1662;-61
2023/05/14 00:55:06;;;;;;;2.85;2.20;;;;;;;12.83;52.40;93830.88;519924;28;799;-61
2023/05/14 00:55:21;;;;;;;2.67;2.10;;;;;;;12.82;52.73;93826.63;519660;28;905;-60
2023/05/14 00:55:37;;;;;;;2.73;2.03;;;;;;;12.68;52.66;93803.16;519336;28;892;-59
2023/05/14 00:55:53;;;;;;;3.53;1.98;;;;;;;12.73;52.34;93814.03;520069;28;900;-60
2023/05/14 00:56:08;;;;;;;3.40;2.00;;;;;;;12.89;52.18;93836.97;519942;28;1662;-60
2023/05/14 00:56:24;;;;;;;2.83;2.10;;;;;;;12.84;52.68;93826.81;520030;28;801;-59
2023/05/14 00:56:39;;;;;;;3.00;2.08;;;;;;;12.92;51.98;93833.09;520399;28;882;-60
2023/05/14 00:56:55;;;;;;;2.30;2.00;;;;;;;12.90;51.68;93830.13;520615;28;880;-60
2023/05/14 00:57:10;;;;;;;2.33;2.00;;;;;;;12.90;51.72;93836.44;522132;28;785;-60
2023/05/14 00:57:26;;;;;;;3.17;2.00;;;;;;;12.87;51.76;93839.53;520133;28;857;-61
2023/05/14 00:57:41;;;;;;;2.75;1.83;;;;;;;12.86;51.84;93838.09;521840;28;1002;-60
2023/05/14 00:57:58;;;;;;;2.00;1.80;;;;;;;12.77;51.75;93819.97;522444;28;1086;-61
2023/05/14 00:58:13;;;;;;;3.58;2.05;;;;;;;12.62;51.90;93794.31;522734;28;1700;-59
2023/05/14 00:58:29;;;;;;;3.97;2.07;;;;;;;12.85;51.93;93828.28;522092;28;1207;-60
2023/05/14 00:58:44;;;;;;;2.40;2.10;;;;;;;12.88;51.82;93829.97;524045;28;1248;-59
2023/05/14 00:59:00;;;;;;;2.47;2.27;;;;;;;12.79;51.91;93822.94;524098;28;908;-59
2023/05/14 00:59:16;;;;;;;2.40;2.20;;;;;;;12.74;51.89;93810.00;523743;28;1113;-60
2023/05/14 00:59:31;;;;;;;2.03;1.88;;;;;;;12.86;51.94;93824.94;524378;28;983;-59
2023/05/14 00:59:47;;;;;;;1.80;1.70;;;;;;;12.84;51.89;93819.22;524168;28;844;-60
2023/05/14 01:00:03;;;;;;;1.92;1.73;;;;;;;12.82;52.49;93829.41;524163;28;855;-60
2023/05/14 01:00:18;;;;;;;2.97;2.05;;;;;;;12.81;52.61;93823.13;523460;28;951;-61
2023/05/14 01:00:34;;;;;;;3.30;2.00;;;;;;;12.84;52.09;93830.31;523100;28;876;-60
2023/05/14 01:00:50;;;;;;;2.75;2.00;;;;;;;12.77;52.29;93827.56;524293;28;1161;-60
2023/05/14 01:01:06;;;;;;;2.10;1.90;;;;;;;12.78;52.32;93823.47;524275;28;916;-60
2023/05/14 01:01:21;;;;;;;2.67;2.08;;;;;;;12.77;52.46;93819.25;524441;28;835;-60
2023/05/14 01:01:36;;;;;;;2.93;2.30;;;;;;;12.74;52.38;93820.34;524434;28;820;-60
2023/05/14 01:01:52;;;;;;;2.20;2.00;;;;;;;12.73;52.47;93832.72;524212;28;1033;-61
2023/05/14 01:02:07;;;;;;;2.17;1.92;;;;;;;12.54;52.53;93804.66;523238;28;1746;-61
2023/05/14 01:02:23;;;;;;;3.73;1.97;;;;;;;12.55;52.84;93809.63;523711;28;1146;-61
2023/05/14 01:02:38;;;;;;;3.37;1.80;;;;;;;12.69;53.14;93826.81;523942;28;918;-60
2023/05/14 01:02:53;;;;;;;3.25;2.00;;;;;;;12.70;53.80;93822.75;522153;28;1658;-60
2023/05/14 01:03:09;;;;;;;3.40;2.10;;;;;;;12.66;52.87;93833.44;522095;28;765;-60
2023/05/14 01:03:25;;;;;;;1.98;1.70;;;;;;;12.61;52.74;93831.59;522204;28;825;-61
2023/05/14 01:03:40;;;;;;;3.13;1.80;;;;;;;12.64;52.46;93833.28;523944;28;868;-60
2023/05/14 01:03:56;;;;;;;3.07;2.10;;;;;;;12.66;52.46;93839.00;524370;28;1342;-61
2023/05/14 01:04:12;;;;;;;2.58;2.35;;;;;;;12.67;52.54;93835.66;524178;28;839;-61
2023/05/14 01:04:28;;;;;;;3.65;2.60;;;;;;;12.68;52.52;93836.41;524156;28;904;-62
2023/05/14 01:04:46;;;;;;;3.10;2.30;;;;;;;12.62;52.46;93819.22;524373;28;856;-61
2023/05/14 01:05:01;;;;;;;2.88;2.10;;;;;;;12.69;52.73;93829.59;522054;28;1727;-60
2023/05/14 01:05:17;;;;;;;4.53;2.22;;;;;;;12.70;52.90;93833.81;522774;28;1107;-61
2023/05/14 01:05:42;;;;;;;3.28;2.00;;;;;;;12.71;52.64;93833.25;523054;28;815;-61
2023/05/14 01:06:07;;;;;;;2.53;1.98;;;;;;;12.64;52.65;93838.81;522018;28;1087;-59
2023/05/14 01:06:25;;;;;;;2.80;2.00;;;;;;;12.65;52.88;93838.25;522140;28;956;-61
2023/05/14 01:06:46;;;;;;;4.80;2.10;;;;;;;12.59;52.83;93828.63;522033;28;891;-61
2023/05/14 01:07:20;;;;;;;3.10;1.98;;;;;;;12.59;53.06;93836.94;522000;28;900;-61
2023/05/14 01:07:59;;;;;;;3.75;2.20;;;;;;;12.58;53.73;93838.25;522068;28;931;-60
2023/05/14 01:08:21;;;;;;;2.30;2.10;;;;;;;12.60;53.87;93836.41;523960;28;1098;-60
2023/05/14 01:08:50;;;;;;;3.85;2.35;;;;;;;12.54;53.23;93821.25;523474;28;844;-60
2023/05/14 01:09:22;;;;;;;2.92;2.00;;;;;;;12.72;52.88;93834.75;521957;28;907;-60
2023/05/14 01:09:43;;;;;;;2.70;2.20;;;;;;;12.78;52.64;93829.00;523184;28;1133;-61
2023/05/14 01:10:07;;;;;;;4.00;2.30;;;;;;;12.83;52.57;93830.88;520073;28;998;-59
2023/05/14 01:10:38;;;;;;;3.42;2.00;;;;;;;12.79;52.47;93836.78;519268;28;880;-60
2023/05/14 01:11:02;;;;;;;2.35;1.98;;;;;;;12.81;52.48;93830.69;518979;28;1543;-61
2023/05/14 01:11:39;;;;;;;2.60;2.10;;;;;;;12.77;52.49;93816.47;520573;28;1218;-61
2023/05/14 01:12:00;;;;;;;2.30;2.10;;;;;;;12.85;52.39;93825.50;523089;28;1278;-60
2023/05/14 01:12:24;;;;;;;2.90;2.03;;;;;;;12.95;52.38;93827.16;524865;28;911;-60
2023/05/14 01:12:59;;;;;;;4.13;2.28;;;;;;;12.97;52.47;93837.72;525740;28;1185;-60
2023/05/14 01:13:24;;;;;;;3.25;2.10;;;;;;;12.88;52.13;93827.19;525944;28;856;-61
2023/05/14 01:14:11;;;;;;;3.47;2.03;;;;;;;12.91;52.21;93826.81;526412;28;851;-61
2023/05/14 01:14:26;;;;;;;2.13;1.80;;;;;;;12.89;52.32;93837.69;521786;28;1114;-62
2023/05/14 01:15:11;;;;;;;2.23;1.87;;;;;;;12.89;52.17;93834.94;524218;28;925;-60
2023/05/14 01:15:31;;;;;;;1.80;1.67;;;;;;;12.80;52.47;93831.97;518724;28;1302;-60
2023/05/14 01:15:47;;;;;;;3.30;1.85;;;;;;;12.79;52.45;93833.28;519725;28;902;-59
2023/05/14 01:16:03;;;;;;;5.35;2.00;;;;;;;12.76;52.50;93826.81;517801;28;829;-59
2023/05/14 01:16:19;;;;;;;7.10;1.90;;;;;;;12.78;52.29;93829.00;518199;28;1253;-59
2023/05/14 01:16:34;;;;;;;6.10;2.10;;;;;;;12.79;52.36;93830.50;520256;28;1106;-60
2023/05/14 01:16:52;;;;;;;3.50;2.10;;;;;;;12.78;52.40;93824.22;519133;28;1369;-60
2023/05/14 01:17:10;;;;;;;2.22;2.03;;;;;;;12.81;52.50;93830.69;517979;28;801;-60
2023/05/14 01:17:28;;;;;;;2.70;2.00;;;;;;;12.76;52.84;93823.28;518114;28;1195;-59
2023/05/14 01:17:55;;;;;;;3.50;2.30;;;;;;;12.80;52.89;93823.66;519813;28;880;-61
2023/05/14 01:18:13;;;;;;;3.10;1.90;;;;;;;12.83;52.68;93830.88;519982;28;896;-61
2023/05/14 01:18:29;;;;;;;2.72;2.00;;;;;;;12.78;52.82;93813.13;519990;28;1101;-61
2023/05/14 01:18:45;;;;;;;3.33;2.30;;;;;;;12.76;52.92;93820.50;522865;28;962;-61
2023/05/14 01:19:01;;;;;;;3.65;2.35;;;;;;;12.73;52.94;93813.34;523105;28;881;-60
2023/05/14 01:19:36;;;;;;;2.30;2.00;;;;;;;12.83;52.84;93808.69;522035;28;857;-61
2023/05/14 01:19:53;;;;;;;3.83;2.38;;;;;;;12.79;52.87;93811.84;522062;28;837;-60
2023/05/14 01:20:09;;;;;;;4.35;2.85;;;;;;;12.72;53.82;93812.59;518269;28;1382;-60
2023/05/14 01:20:25;;;;;;;3.83;2.67;;;;;;;12.67;54.27;93810.72;516036;28;786;-60
2023/05/14 01:20:41;;;;;;;2.78;2.05;;;;;;;12.70;53.77;93811.66;518272;28;938;-60
2023/05/14 01:20:56;;;;;;;5.37;2.10;;;;;;;12.72;53.08;93820.16;519153;28;1150;-60
2023/05/14 01:21:43;;;;;;;5.38;2.28;;;;;;;12.80;52.98;93804.25;519989;28;892;-60
2023/05/14 01:21:59;;;;;;;2.63;2.20;;;;;;;12.81;52.57;93814.81;517670;28;1068;-60